Time;durP1;ratioP1;P1;durP2;ratioP2;P2;SDS_P1;SDS_P2;PMS_P1;PMS_P2;Temp;Humidity;BMP_temperature;BMP_pressure;BME280_temperature;BME280_humidity;BME280_pressure;Samples;Min_cycle;Max_cycle;Signal;HPM_P1;HPM_P2
2022/03/12 00:02:18;;;;;;;;;;;13.50;48.10;;;;;;5057425;28;19924;-70
2022/03/12 00:04:45;;;;;;;;;;;13.50;48.10;;;;;;5092807;28;20014;-69
2022/03/12 00:07:14;;;;;;;;;;;13.50;48.10;;;;;;5074703;28;20300;-70
2022/03/12 00:09:41;;;;;;;;;;;13.40;48.10;;;;;;5092956;28;19931;-70
2022/03/12 00:12:09;;;;;;;;;;;13.40;48.10;;;;;;5075171;28;19930;-69
2022/03/12 00:14:37;;;;;;;;;;;13.40;48.20;;;;;;5074477;28;20012;-70
2022/03/12 00:17:05;;;;;;;;;;;13.90;48.40;;;;;;5092532;28;20007;-70
2022/03/12 00:19:33;;;;;;;;;;;13.40;48.10;;;;;;5074981;28;19972;-68
2022/03/12 00:22:03;;;;;;;;;;;13.40;48.10;;;;;;5074656;28;19931;-70
2022/03/12 00:24:30;;;;;;;;;;;13.90;48.40;;;;;;5092026;28;19924;-70
2022/03/12 00:27:00;;;;;;;;;;;13.40;48.20;;;;;;5074487;28;19923;-70
2022/03/12 00:29:27;;;;;;;;;;;13.40;48.20;;;;;;5074310;28;19928;-70
2022/03/12 00:31:54;;;;;;;;;;;13.40;48.20;;;;;;5092755;28;19928;-69
2022/03/12 00:34:20;;;;;;;;;;;13.40;48.10;;;;;;5074274;28;19923;-70
2022/03/12 00:36:49;;;;;;;;;;;13.40;48.20;;;;;;5092577;28;19924;-70
2022/03/12 00:39:16;;;;;;;;;;;13.50;48.20;;;;;;5092723;28;19925;-70
2022/03/12 00:41:43;;;;;;;;;;;13.40;48.10;;;;;;5073348;28;19924;-70
2022/03/12 00:44:12;;;;;;;;;;;13.50;48.20;;;;;;5091853;28;19930;-69
2022/03/12 00:46:39;;;;;;;;;;;13.70;48.40;;;;;;5074543;28;19964;-70
2022/03/12 00:49:05;;;;;;;;;;;13.80;48.40;;;;;;5092833;28;20300;-70
2022/03/12 00:51:32;;;;;;;;;;;13.40;48.10;;;;;;5092360;28;19924;-71
2022/03/12 00:54:00;;;;;;;;;;;13.40;48.10;;;;;;5092074;28;20303;-69
2022/03/12 00:56:26;;;;;;;;;;;13.40;48.10;;;;;;5091989;28;19924;-68
2022/03/12 00:58:53;;;;;;;;;;;13.40;48.10;;;;;;5074051;28;19924;-70
2022/03/12 01:01:19;;;;;;;;;;;13.60;48.30;;;;;;5073863;28;19924;-70
2022/03/12 01:03:46;;;;;;;;;;;13.50;48.20;;;;;;5073716;28;19924;-70
2022/03/12 01:06:13;;;;;;;;;;;13.50;48.20;;;;;;5074451;28;19936;-70
2022/03/12 01:08:40;;;;;;;;;;;13.50;48.10;;;;;;5092440;28;19946;-70
2022/03/12 01:11:08;;;;;;;;;;;13.70;48.20;;;;;;5056924;28;19959;-68
2022/03/12 01:13:35;;;;;;;;;;;13.50;48.10;;;;;;5073482;28;19924;-70
2022/03/12 01:16:02;;;;;;;;;;;13.50;48.10;;;;;;5074020;28;19924;-70
2022/03/12 01:18:29;;;;;;;;;;;14.20;48.50;;;;;;5074226;28;19928;-70
2022/03/12 01:20:55;;;;;;;;;;;13.50;48.00;;;;;;5074002;28;19924;-70
2022/03/12 01:23:23;;;;;;;;;;;14.10;48.40;;;;;;5073777;28;19925;-70
2022/03/12 01:25:50;;;;;;;;;;;13.50;48.00;;;;;;5074010;28;19931;-70
2022/03/12 01:28:18;;;;;;;;;;;13.90;48.30;;;;;;5073636;28;19931;-70
2022/03/12 01:30:44;;;;;;;;;;;13.60;48.10;;;;;;5073934;28;20014;-70
2022/03/12 01:33:11;;;;;;;;;;;13.60;48.10;;;;;;5091606;28;19924;-70
2022/03/12 01:35:38;;;;;;;;;;;13.60;48.00;;;;;;5074213;28;19942;-70
2022/03/12 01:38:04;;;;;;;;;;;13.70;48.10;;;;;;5074216;28;19950;-70
2022/03/12 01:40:31;;;;;;;;;;;13.60;48.00;;;;;;5091834;28;20402;-70
2022/03/12 01:42:57;;;;;;;;;;;13.60;48.00;;;;;;5073502;28;20406;-70
2022/03/12 01:45:27;;;;;;;;;;;13.60;48.00;;;;;;5073846;28;20295;-70
2022/03/12 01:47:55;;;;;;;;;;;13.60;48.00;;;;;;5073859;28;19930;-68
2022/03/12 01:50:22;;;;;;;;;;;14.30;48.40;;;;;;5091870;28;19987;-70
2022/03/12 01:52:49;;;;;;;;;;;13.60;47.90;;;;;;5076264;28;20426;-70
2022/03/12 01:55:16;;;;;;;;;;;13.60;47.90;;;;;;5077606;28;19924;-70
2022/03/12 01:57:42;;;;;;;;;;;13.60;47.90;;;;;;5077443;28;19928;-70
2022/03/12 02:00:10;;;;;;;;;;;13.60;47.90;;;;;;5095135;28;19928;-70
2022/03/12 02:02:37;;;;;;;;;;;13.60;47.90;;;;;;5095077;28;19971;-69
2022/03/12 02:05:05;;;;;;;;;;;13.70;48.00;;;;;;5094962;28;19928;-69
2022/03/12 02:07:32;;;;;;;;;;;13.70;47.90;;;;;;5095152;28;20543;-70
2022/03/12 02:10:00;;;;;;;;;;;13.70;47.90;;;;;;5077134;28;20376;-70
2022/03/12 02:12:27;;;;;;;;;;;13.90;48.00;;;;;;5076285;28;19931;-68
2022/03/12 02:14:53;;;;;;;;;;;13.60;47.90;;;;;;5076719;28;19924;-70
2022/03/12 02:17:20;;;;;;;;;;;13.60;47.80;;;;;;5077287;28;20385;-70
2022/03/12 02:19:48;;;;;;;;;;;13.70;47.90;;;;;;5095160;28;20352;-70
2022/03/12 02:22:15;;;;;;;;;;;13.70;47.90;;;;;;5094691;28;19927;-70
2022/03/12 02:24:42;;;;;;;;;;;15.20;48.70;;;;;;5077004;28;19924;-70
2022/03/12 02:27:10;;;;;;;;;;;13.70;47.80;;;;;;5076758;28;19924;-70
2022/03/12 02:29:37;;;;;;;;;;;14.30;48.20;;;;;;5076411;28;19923;-69
2022/03/12 02:32:09;;;;;;;;;;;13.70;47.90;;;;;;5076835;28;19930;-70
2022/03/12 02:34:38;;;;;;;;;;;13.70;47.80;;;;;;5094628;28;19925;-70
2022/03/12 02:37:05;;;;;;;;;;;13.70;47.90;;;;;;5095038;28;20017;-69
2022/03/12 02:39:32;;;;;;;;;;;13.70;47.80;;;;;;5094398;28;19924;-70
2022/03/12 02:42:00;;;;;;;;;;;13.70;47.80;;;;;;5076532;28;19925;-70
2022/03/12 02:44:28;;;;;;;;;;;13.70;47.80;;;;;;5076129;28;19924;-71
2022/03/12 02:47:14;;;;;;;;;;;13.70;47.80;;;;;;5094466;28;20311;-70
2022/03/12 02:49:42;;;;;;;;;;;13.70;47.80;;;;;;5076654;28;19932;-70
2022/03/12 02:52:09;;;;;;;;;;;13.70;47.80;;;;;;5094303;28;19939;-68
2022/03/12 02:54:36;;;;;;;;;;;13.70;47.80;;;;;;5076145;28;19931;-70
2022/03/12 02:57:04;;;;;;;;;;;13.70;47.80;;;;;;5076371;28;19974;-70
2022/03/12 02:59:31;;;;;;;;;;;13.70;47.80;;;;;;5094070;28;20017;-70
2022/03/12 03:02:00;;;;;;;;;;;13.70;47.80;;;;;;5094042;28;20010;-70
2022/03/12 03:04:26;;;;;;;;;;;13.70;47.80;;;;;;5075196;28;20295;-70
2022/03/12 03:06:53;;;;;;;;;;;13.70;47.80;;;;;;5076240;28;20007;-70
2022/03/12 03:09:19;;;;;;;;;;;13.70;47.80;;;;;;5076089;28;19924;-71
2022/03/12 03:11:46;;;;;;;;;;;13.70;47.70;;;;;;5093777;28;19924;-69
2022/03/12 03:14:18;;;;;;;;;;;14.10;48.00;;;;;;5075894;28;19928;-70
2022/03/12 03:16:47;;;;;;;;;;;13.70;47.80;;;;;;5075852;28;19975;-70
2022/03/12 03:19:15;;;;;;;;;;;13.80;47.80;;;;;;5094119;28;20433;-71
2022/03/12 03:21:41;;;;;;;;;;;13.70;47.80;;;;;;5093893;28;20033;-70
2022/03/12 03:24:08;;;;;;;;;;;13.70;48.30;;;;;;5075080;28;19930;-70
2022/03/12 03:26:51;;;;;;;;;;;13.70;47.70;;;;;;5093687;28;19928;-70
2022/03/12 03:29:21;;;;;;;;;;;13.70;47.70;;;;;;5075490;28;19928;-70
2022/03/12 03:31:48;;;;;;;;;;;13.70;47.70;;;;;;5093240;28;19924;-70
2022/03/12 03:34:14;;;;;;;;;;;13.70;47.70;;;;;;5074938;28;19934;-69
2022/03/12 03:36:41;;;;;;;;;;;13.70;47.70;;;;;;5093684;28;20007;-70
2022/03/12 03:39:08;;;;;;;;;;;13.70;47.70;;;;;;5075542;28;19924;-70
2022/03/12 03:41:34;;;;;;;;;;;13.70;47.70;;;;;;5093246;28;20442;-70
2022/03/12 03:44:01;;;;;;;;;;;13.70;47.70;;;;;;5074804;28;20291;-69
2022/03/12 03:46:29;;;;;;;;;;;13.70;47.70;;;;;;5075305;28;20019;-70
2022/03/12 03:48:55;;;;;;;;;;;13.70;47.70;;;;;;5093669;28;19924;-70
2022/03/12 03:51:22;;;;;;;;;;;13.70;47.70;;;;;;5075316;28;19930;-70
2022/03/12 03:53:49;;;;;;;;;;;13.80;47.70;;;;;;5075039;28;19928;-71
2022/03/12 03:56:15;;;;;;;;;;;14.20;47.90;;;;;;5074897;28;19928;-70
2022/03/12 03:58:42;;;;;;;;;;;13.70;47.60;;;;;;5075317;28;19930;-70
2022/03/12 04:01:11;;;;;;;;;;;14.30;48.00;;;;;;5092844;28;19931;-70
2022/03/12 04:03:44;;;;;;;;;;;13.70;47.60;;;;;;5092823;28;20285;-70
2022/03/12 04:06:11;;;;;;;;;;;13.70;47.60;;;;;;5092959;28;20277;-70
2022/03/12 04:08:38;;;;;;;;;;;13.70;47.60;;;;;;5074612;28;19924;-69
2022/03/12 04:11:05;;;;;;;;;;;13.70;47.60;;;;;;5092901;28;19975;-70
2022/03/12 04:13:32;;;;;;;;;;;13.70;47.60;;;;;;5092612;28;19932;-69
2022/03/12 04:15:59;;;;;;;;;;;13.70;47.60;;;;;;5092963;28;19931;-70
2022/03/12 04:18:25;;;;;;;;;;;13.70;47.60;;;;;;5074644;28;19931;-70
2022/03/12 04:20:53;;;;;;;;;;;14.00;47.80;;;;;;5092393;28;19924;-70
2022/03/12 04:23:21;;;;;;;;;;;14.00;47.80;;;;;;5073848;28;20011;-69
2022/03/12 04:25:48;;;;;;;;;;;13.70;47.60;;;;;;5092689;28;19928;-70
2022/03/12 04:28:14;;;;;;;;;;;13.70;47.60;;;;;;5092874;28;19930;-70
2022/03/12 04:30:41;;;;;;;;;;;14.40;48.00;;;;;;5074493;28;19924;-70
2022/03/12 04:33:08;;;;;;;;;;;13.70;47.60;;;;;;5074460;28;19981;-70
2022/03/12 04:35:35;;;;;;;;;;;13.70;47.60;;;;;;5074212;28;19973;-70
2022/03/12 04:38:03;;;;;;;;;;;13.70;47.60;;;;;;5092448;28;19930;-70
2022/03/12 04:40:30;;;;;;;;;;;13.70;47.60;;;;;;5074620;28;19974;-70
2022/03/12 04:42:56;;;;;;;;;;;13.60;47.50;;;;;;5091954;28;20398;-69
2022/03/12 04:45:23;;;;;;;;;;;13.70;47.60;;;;;;5074550;28;20393;-70
2022/03/12 04:47:50;;;;;;;;;;;13.70;47.60;;;;;;5091912;28;19924;-70
2022/03/12 04:50:18;;;;;;;;;;;13.70;47.60;;;;;;5092526;28;19963;-70
2022/03/12 04:52:45;;;;;;;;;;;13.70;47.60;;;;;;5074455;28;19931;-71
2022/03/12 04:55:13;;;;;;;;;;;13.70;47.60;;;;;;5092382;28;19924;-70
2022/03/12 04:57:40;;;;;;;;;;;13.70;47.60;;;;;;5092215;28;19924;-70
2022/03/12 05:00:08;;;;;;;;;;;14.00;47.70;;;;;;5092378;28;20567;-70
2022/03/12 05:02:34;;;;;;;;;;;13.70;47.50;;;;;;5073842;28;19924;-70
2022/03/12 05:05:01;;;;;;;;;;;14.00;47.80;;;;;;5074242;28;19924;-70
2022/03/12 05:07:27;;;;;;;;;;;13.80;47.60;;;;;;5092218;28;19928;-70
2022/03/12 05:09:55;;;;;;;;;;;13.70;47.50;;;;;;5092417;28;19924;-70
2022/03/12 05:12:23;;;;;;;;;;;13.70;47.50;;;;;;5074281;28;19930;-70
2022/03/12 05:14:51;;;;;;;;;;;13.70;47.50;;;;;;5074209;28;19924;-70
2022/03/12 05:17:19;;;;;;;;;;;13.70;47.50;;;;;;5074026;28;19930;-70
2022/03/12 05:19:46;;;;;;;;;;;13.70;47.60;;;;;;5091766;28;19924;-69
2022/03/12 05:22:12;;;;;;;;;;;13.70;47.60;;;;;;5091461;28;19924;-69
2022/03/12 05:24:39;;;;;;;;;;;13.70;47.50;;;;;;5073034;28;20016;-69
2022/03/12 05:27:09;;;;;;;;;;;15.10;48.30;;;;;;5093209;28;20003;-68
2022/03/12 05:29:38;;;;;;;;;;;13.70;47.60;;;;;;5095669;28;20011;-68
2022/03/12 05:32:05;;;;;;;;;;;13.70;47.60;;;;;;5093228;28;19924;-69
2022/03/12 05:34:31;;;;;;;;;;;13.70;47.60;;;;;;5094844;28;20340;-69
2022/03/12 05:36:59;;;;;;;;;;;13.70;47.50;;;;;;5076429;28;20312;-67
2022/03/12 05:39:26;;;;;;;;;;;13.70;47.50;;;;;;5095250;28;19931;-67
2022/03/12 05:41:52;;;;;;;;;;;13.70;47.50;;;;;;5094936;28;20019;-68
2022/03/12 05:44:19;;;;;;;;;;;13.70;47.50;;;;;;5092691;28;19928;-69
2022/03/12 05:46:47;;;;;;;;;;;13.60;47.50;;;;;;5076923;28;19928;-69
2022/03/12 05:49:14;;;;;;;;;;;13.60;47.50;;;;;;5077324;28;19924;-69
2022/03/12 05:51:43;;;;;;;;;;;13.60;47.50;;;;;;5094895;28;20311;-67
2022/03/12 05:54:10;;;;;;;;;;;13.60;47.50;;;;;;5077521;28;20007;-70
2022/03/12 05:56:40;;;;;;;;;;;13.60;47.50;;;;;;5077521;28;19924;-68
2022/03/12 05:59:06;;;;;;;;;;;13.60;47.40;;;;;;5095541;28;20023;-67
2022/03/12 06:01:33;;;;;;;;;;;13.60;47.50;;;;;;5095739;28;19946;-69
2022/03/12 06:04:01;;;;;;;;;;;13.60;47.50;;;;;;5077101;28;19924;-69
2022/03/12 06:06:30;;;;;;;;;;;13.60;47.50;;;;;;5094867;28;19928;-69
2022/03/12 06:08:57;;;;;;;;;;;13.60;47.50;;;;;;5095482;28;20461;-69
2022/03/12 06:11:25;;;;;;;;;;;13.70;47.50;;;;;;5095538;28;20540;-69
2022/03/12 06:13:54;;;;;;;;;;;14.00;47.60;;;;;;5076991;28;19981;-70
2022/03/12 06:16:21;;;;;;;;;;;13.50;47.30;;;;;;5095482;28;20014;-70
2022/03/12 06:18:48;;;;;;;;;;;13.90;47.60;;;;;;5077422;28;19924;-69
2022/03/12 06:21:15;;;;;;;;;;;13.50;47.30;;;;;;5095181;28;19928;-69
2022/03/12 06:23:42;;;;;;;;;;;13.50;47.40;;;;;;5094528;28;19931;-70
2022/03/12 06:26:16;;;;;;;;;;;14.10;47.80;;;;;;5095470;28;20015;-69
2022/03/12 06:28:43;;;;;;;;;;;16.10;48.90;;;;;;5077269;28;19967;-70
2022/03/12 06:31:10;;;;;;;;;;;14.50;48.00;;;;;;5095299;28;19924;-69
2022/03/12 06:33:37;;;;;;;;;;;14.00;47.80;;;;;;5094728;28;19924;-69
2022/03/12 06:36:04;;;;;;;;;;;13.70;47.60;;;;;;5076479;28;19975;-68
2022/03/12 06:38:32;;;;;;;;;;;13.70;47.50;;;;;;5093244;28;19928;-69
2022/03/12 06:40:59;;;;;;;;;;;13.70;47.50;;;;;;5093626;28;19971;-69
2022/03/12 06:43:26;;;;;;;;;;;13.70;47.40;;;;;;5093848;28;20450;-69
2022/03/12 06:45:53;;;;;;;;;;;13.80;47.30;;;;;;5094578;28;19924;-69
2022/03/12 06:48:22;;;;;;;;;;;13.70;47.30;;;;;;5094125;28;19931;-68
2022/03/12 06:50:48;;;;;;;;;;;13.80;47.30;;;;;;5094130;28;19924;-68
2022/03/12 06:53:15;;;;;;;;;;;13.80;47.30;;;;;;5075687;28;19924;-69
2022/03/12 06:55:43;;;;;;;;;;;13.80;47.30;;;;;;5076070;28;19930;-69
2022/03/12 06:58:10;;;;;;;;;;;13.80;47.20;;;;;;5076178;28;19931;-67
2022/03/12 07:00:36;;;;;;;;;;;13.80;47.20;;;;;;5094264;28;19928;-69
2022/03/12 07:03:03;;;;;;;;;;;13.80;47.10;;;;;;5075655;28;19930;-69
2022/03/12 07:05:30;;;;;;;;;;;13.80;47.10;;;;;;5093876;28;19924;-69
2022/03/12 07:07:57;;;;;;;;;;;13.90;47.20;;;;;;5091484;28;19928;-69
2022/03/12 07:10:23;;;;;;;;;;;13.90;47.10;;;;;;5075759;28;19924;-69
2022/03/12 07:12:51;;;;;;;;;;;13.90;47.10;;;;;;5093591;28;19967;-69
2022/03/12 07:15:18;;;;;;;;;;;13.90;47.10;;;;;;5091364;28;19924;-69
2022/03/12 07:17:45;;;;;;;;;;;13.90;47.10;;;;;;5093294;28;19924;-69
2022/03/12 07:20:12;;;;;;;;;;;13.90;47.00;;;;;;5075966;28;19931;-69
2022/03/12 07:22:38;;;;;;;;;;;13.90;47.00;;;;;;5093830;28;19924;-69
2022/03/12 07:25:06;;;;;;;;;;;14.00;47.00;;;;;;5093965;28;19931;-69
2022/03/12 07:27:32;;;;;;;;;;;14.00;47.00;;;;;;5075561;28;19931;-69
2022/03/12 07:30:01;;;;;;;;;;;14.00;47.00;;;;;;5093827;28;19924;-68
2022/03/12 07:32:28;;;;;;;;;;;14.00;46.90;;;;;;5075318;28;19972;-67
2022/03/12 07:34:55;;;;;;;;;;;14.00;46.90;;;;;;5075758;28;19924;-68
2022/03/12 07:37:21;;;;;;;;;;;14.00;46.70;;;;;;5093424;28;20365;-67
2022/03/12 07:39:48;;;;;;;;;;;14.00;46.70;;;;;;5075768;28;19924;-67
2022/03/12 07:42:14;;;;;;;;;;;14.00;46.70;;;;;;5093373;28;19924;-66
2022/03/12 07:44:41;;;;;;;;;;;14.10;46.70;;;;;;5092869;28;20406;-68
2022/03/12 07:47:09;;;;;;;;;;;14.10;46.70;;;;;;5075639;28;19971;-67
2022/03/12 07:49:36;;;;;;;;;;;14.10;46.60;;;;;;5093212;28;19928;-67
2022/03/12 07:52:02;;;;;;;;;;;14.10;46.60;;;;;;5093693;28;19931;-67
2022/03/12 07:54:29;;;;;;;;;;;14.10;46.60;;;;;;5093450;28;20007;-67
2022/03/12 07:56:56;;;;;;;;;;;14.20;46.70;;;;;;5092857;28;19924;-69
2022/03/12 07:59:22;;;;;;;;;;;14.20;46.50;;;;;;5075161;28;19947;-68
2022/03/12 08:01:49;;;;;;;;;;;14.20;46.50;;;;;;5075376;28;19924;-70
2022/03/12 08:04:17;;;;;;;;;;;14.20;46.60;;;;;;5092762;28;19930;-70
2022/03/12 08:06:43;;;;;;;;;;;14.20;46.60;;;;;;5075309;28;19927;-70
2022/03/12 08:09:10;;;;;;;;;;;14.30;46.70;;;;;;5075074;28;19975;-70
2022/03/12 08:11:37;;;;;;;;;;;14.30;46.60;;;;;;5092997;28;19928;-70
2022/03/12 08:14:09;;;;;;;;;;;14.30;46.90;;;;;;5092709;28;19924;-70
2022/03/12 08:16:36;;;;;;;;;;;14.40;46.80;;;;;;5074654;28;19924;-70
2022/03/12 08:19:02;;;;;;;;;;;14.50;46.80;;;;;;5092925;28;19924;-70
2022/03/12 08:21:30;;;;;;;;;;;14.50;46.70;;;;;;5074990;28;20398;-70
2022/03/12 08:23:58;;;;;;;;;;;14.50;46.60;;;;;;5074550;28;20342;-70
2022/03/12 08:26:24;;;;;;;;;;;14.60;46.60;;;;;;5074909;28;20380;-70
2022/03/12 08:28:51;;;;;;;;;;;14.60;46.50;;;;;;5074408;28;20303;-69
2022/03/12 08:31:18;;;;;;;;;;;14.70;46.50;;;;;;5074249;28;19971;-70
2022/03/12 08:33:45;;;;;;;;;;;14.70;46.50;;;;;;5092205;28;19928;-70
2022/03/12 08:36:13;;;;;;;;;;;14.70;46.40;;;;;;5074981;28;19930;-71
2022/03/12 08:38:40;;;;;;;;;;;14.80;46.40;;;;;;5092427;28;19928;-70
2022/03/12 08:41:07;;;;;;;;;;;14.80;46.40;;;;;;5092516;28;19928;-70
2022/03/12 08:43:34;;;;;;;;;;;14.80;46.30;;;;;;5074294;28;20299;-70
2022/03/12 08:46:01;;;;;;;;;;;14.80;46.30;;;;;;5091682;28;19924;-69
2022/03/12 08:48:28;;;;;;;;;;;14.90;46.30;;;;;;5073816;28;19951;-68
2022/03/12 08:50:54;;;;;;;;;;;14.80;46.30;;;;;;5092235;28;19924;-68
2022/03/12 08:53:21;;;;;;;;;;;14.90;46.20;;;;;;5091867;28;19931;-69
2022/03/12 08:55:49;;;;;;;;;;;14.90;46.20;;;;;;5092021;28;19973;-68
2022/03/12 08:58:16;;;;;;;;;;;15.00;46.30;;;;;;5091659;28;20007;-68
2022/03/12 09:00:43;;;;;;;;;;;15.00;46.10;;;;;;5073709;28;19924;-69
2022/03/12 09:03:09;;;;;;;;;;;15.00;46.40;;;;;;5095449;28;19947;-69
2022/03/12 09:05:36;;;;;;;;;;;15.00;46.60;;;;;;5096574;28;20365;-68
2022/03/12 09:08:03;;;;;;;;;;;15.10;46.40;;;;;;5096566;28;20007;-66
2022/03/12 09:10:29;;;;;;;;;;;15.10;46.50;;;;;;5096495;28;20323;-69
2022/03/12 09:12:57;;;;;;;;;;;15.20;46.50;;;;;;5077969;28;20368;-68
2022/03/12 09:15:24;;;;;;;;;;;15.20;46.40;;;;;;5078467;28;20399;-68
2022/03/12 09:17:51;;;;;;;;;;;15.20;46.30;;;;;;5096242;28;19930;-66
2022/03/12 09:20:17;;;;;;;;;;;15.30;46.40;;;;;;5096324;28;19924;-66
2022/03/12 09:22:44;;;;;;;;;;;15.30;46.30;;;;;;5096108;28;19924;-68
2022/03/12 09:25:13;;;;;;;;;;;15.30;46.30;;;;;;5077837;28;19925;-67
2022/03/12 09:27:39;;;;;;;;;;;15.40;46.80;;;;;;5096317;28;19974;-68
2022/03/12 09:30:08;;;;;;;;;;;15.40;47.30;;;;;;5095819;28;19930;-69
2022/03/12 09:32:35;;;;;;;;;;;15.50;47.40;;;;;;5061312;28;20633;-68
2022/03/12 09:35:02;;;;;;;;;;;15.30;47.10;;;;;;5095865;28;19946;-68
2022/03/12 09:37:28;;;;;;;;;;;15.70;47.20;;;;;;5095803;28;20407;-69
2022/03/12 09:39:55;;;;;;;;;;;15.80;46.90;;;;;;5095519;28;20292;-68
2022/03/12 09:42:23;;;;;;;;;;;15.80;46.60;;;;;;5077562;28;19924;-69
2022/03/12 09:44:51;;;;;;;;;;;15.90;46.50;;;;;;5095474;28;19931;-68
2022/03/12 09:47:19;;;;;;;;;;;15.80;46.40;;;;;;5095516;28;19935;-68
2022/03/12 09:49:46;;;;;;;;;;;15.80;46.50;;;;;;5077191;28;20376;-68
2022/03/12 09:52:12;;;;;;;;;;;15.90;46.80;;;;;;5095544;28;20285;-68
2022/03/12 09:54:39;;;;;;;;;;;15.90;47.10;;;;;;5095451;28;20299;-67
2022/03/12 09:57:05;;;;;;;;;;;16.00;47.30;;;;;;5095312;28;20394;-66
2022/03/12 09:59:32;;;;;;;;;;;16.10;47.40;;;;;;5095845;28;19924;-66
2022/03/12 10:02:00;;;;;;;;;;;16.10;47.10;;;;;;5095294;28;19928;-66
2022/03/12 10:04:29;;;;;;;;;;;16.20;47.00;;;;;;5092714;28;20013;-67
2022/03/12 10:06:55;;;;;;;;;;;16.20;47.00;;;;;;5095534;28;19978;-66
2022/03/12 10:09:22;;;;;;;;;;;16.20;46.70;;;;;;5094463;28;19924;-66
2022/03/12 10:11:52;;;;;;;;;;;16.20;46.60;;;;;;5076564;28;19936;-67
2022/03/12 10:14:18;;;;;;;;;;;16.20;46.50;;;;;;5076324;28;20311;-66
2022/03/12 10:16:45;;;;;;;;;;;16.20;46.50;;;;;;5094253;28;19924;-66
2022/03/12 10:19:12;;;;;;;;;;;16.20;46.40;;;;;;5094220;28;19924;-67
2022/03/12 10:21:45;;;;;;;;;;;16.20;46.40;;;;;;5094721;28;19934;-66
2022/03/12 10:24:11;;;;;;;;;;;16.10;46.40;;;;;;5094239;28;20298;-68
2022/03/12 10:26:38;;;;;;;;;;;16.10;46.30;;;;;;5094734;28;19924;-67
2022/03/12 10:29:05;;;;;;;;;;;16.10;46.30;;;;;;5094447;28;19954;-66
2022/03/12 10:31:32;;;;;;;;;;;16.10;46.30;;;;;;5076630;28;19931;-67
2022/03/12 10:34:18;;;;;;;;;;;16.10;46.30;;;;;;5094359;28;20001;-69
2022/03/12 10:36:46;;;;;;;;;;;16.10;46.30;;;;;;5092215;28;20282;-69
2022/03/12 10:39:13;;;;;;;;;;;16.10;46.30;;;;;;5094223;28;19930;-69
2022/03/12 10:41:39;;;;;;;;;;;16.10;46.30;;;;;;5075870;28;19930;-69
2022/03/12 10:44:06;;;;;;;;;;;16.10;46.30;;;;;;5093847;28;19924;-67
2022/03/12 10:46:34;;;;;;;;;;;16.10;46.30;;;;;;5075989;28;20497;-69
2022/03/12 10:49:03;;;;;;;;;;;16.10;46.30;;;;;;5073702;28;19928;-69
2022/03/12 10:51:30;;;;;;;;;;;16.10;46.30;;;;;;5075656;28;19930;-68
2022/03/12 10:54:04;;;;;;;;;;;16.10;46.30;;;;;;5093295;28;19924;-68
2022/03/12 10:56:43;;;;;;;;;;;16.10;46.30;;;;;;5087255;28;19931;-66
2022/03/12 10:59:11;;;;;;;;;;;16.20;46.40;;;;;;5074576;28;19974;-71
2022/03/12 11:01:37;;;;;;;;;;;16.20;46.40;;;;;;5074019;28;19932;-70
2022/03/12 11:04:05;;;;;;;;;;;16.20;46.40;;;;;;5073724;28;19931;-70
2022/03/12 11:06:35;;;;;;;;;;;16.20;46.30;;;;;;5073825;28;19925;-70
2022/03/12 11:09:03;;;;;;;;;;;16.30;46.40;;;;;;5073767;28;20432;-70
2022/03/12 11:11:29;;;;;;;;;;;16.30;46.40;;;;;;5075377;28;20387;-70
2022/03/12 11:13:56;;;;;;;;;;;16.30;46.40;;;;;;5073961;28;20029;-70
2022/03/12 11:16:24;;;;;;;;;;;16.30;46.40;;;;;;5073681;28;19925;-68
2022/03/12 11:18:58;;;;;;;;;;;16.30;46.40;;;;;;5073859;28;19925;-70
2022/03/12 11:21:25;;;;;;;;;;;16.30;46.40;;;;;;5055610;28;19925;-69
2022/03/12 11:23:53;;;;;;;;;;;16.30;46.40;;;;;;5083048;28;19924;-70
2022/03/12 11:26:21;;;;;;;;;;;16.40;46.60;;;;;;5072671;28;20400;-69
2022/03/12 11:28:56;;;;;;;;;;;16.40;46.60;;;;;;5093625;28;20269;-69
2022/03/12 11:31:37;;;;;;;;;;;16.40;46.50;;;;;;5076117;28;20015;-70
2022/03/12 11:34:12;;;;;;;;;;;16.40;46.50;;;;;;5093126;28;19934;-69
2022/03/12 11:36:42;;;;;;;;;;;16.40;46.50;;;;;;5094142;28;19946;-70
2022/03/12 11:39:08;;;;;;;;;;;16.40;46.50;;;;;;5075618;28;20011;-70
2022/03/12 11:41:37;;;;;;;;;;;16.40;46.50;;;;;;5075816;28;19924;-69
2022/03/12 11:44:08;;;;;;;;;;;16.40;46.50;;;;;;5075158;28;20372;-69
2022/03/12 11:46:34;;;;;;;;;;;16.40;46.40;;;;;;5093690;28;19946;-69
2022/03/12 11:49:01;;;;;;;;;;;16.50;46.80;;;;;;5093824;28;19947;-70
2022/03/12 11:51:28;;;;;;;;;;;16.50;47.10;;;;;;5093824;28;19930;-70
2022/03/12 11:53:56;;;;;;;;;;;16.50;47.10;;;;;;5074738;28;19931;-68
2022/03/12 11:56:27;;;;;;;;;;;16.50;47.00;;;;;;5090392;28;20003;-67
2022/03/12 11:58:55;;;;;;;;;;;16.60;47.10;;;;;;5092749;28;19978;-67
2022/03/12 12:01:22;;;;;;;;;;;16.60;47.20;;;;;;5092119;28;19924;-69
2022/03/12 12:03:49;;;;;;;;;;;16.60;47.20;;;;;;5074488;28;19931;-68
2022/03/12 12:06:15;;;;;;;;;;;16.70;47.40;;;;;;5073723;28;19924;-68
2022/03/12 12:08:43;;;;;;;;;;;16.70;47.40;;;;;;5072741;28;19987;-69
2022/03/12 12:11:11;;;;;;;;;;;16.70;47.50;;;;;;5092167;28;19928;-68
2022/03/12 12:13:40;;;;;;;;;;;16.70;47.40;;;;;;5092646;28;19987;-68
2022/03/12 12:16:08;;;;;;;;;;;16.70;47.30;;;;;;5093020;28;19931;-67
2022/03/12 12:18:34;;;;;;;;;;;16.80;47.50;;;;;;5089974;28;20297;-68
2022/03/12 12:21:01;;;;;;;;;;;16.70;47.40;;;;;;5092425;28;20304;-68
2022/03/12 12:23:28;;;;;;;;;;;16.80;47.50;;;;;;5074372;28;19928;-68
2022/03/12 12:25:58;;;;;;;;;;;16.80;47.50;;;;;;5092587;28;19930;-68
2022/03/12 12:28:25;;;;;;;;;;;16.80;47.30;;;;;;5092830;28;19924;-68
2022/03/12 12:30:53;;;;;;;;;;;16.80;47.20;;;;;;5092390;28;20001;-68
2022/03/12 12:33:23;;;;;;;;;;;16.70;47.20;;;;;;5067991;28;19939;-68
2022/03/12 12:35:49;;;;;;;;;;;16.70;47.20;;;;;;5064466;28;19924;-69
2022/03/12 12:38:18;;;;;;;;;;;16.70;47.20;;;;;;5081964;28;19924;-68
2022/03/12 12:40:46;;;;;;;;;;;16.70;47.20;;;;;;5083221;28;19985;-68
2022/03/12 12:43:14;;;;;;;;;;;16.60;47.10;;;;;;5063735;28;19947;-68
2022/03/12 12:45:56;;;;;;;;;;;16.60;47.10;;;;;;5081276;28;20429;-69
2022/03/12 12:48:28;;;;;;;;;;;16.60;47.10;;;;;;5073524;28;20014;-69
2022/03/12 12:51:05;;;;;;;;;;;16.60;47.20;;;;;;5090546;28;19998;-69
2022/03/12 12:53:32;;;;;;;;;;;16.60;47.20;;;;;;5086619;28;19932;-69
2022/03/12 12:56:13;;;;;;;;;;;16.60;47.20;;;;;;5082850;28;19930;-69
2022/03/12 12:58:45;;;;;;;;;;;16.60;47.20;;;;;;5075037;28;19924;-69
2022/03/12 13:01:13;;;;;;;;;;;16.60;47.20;;;;;;5063186;28;20311;-68
2022/03/12 13:03:46;;;;;;;;;;;16.60;47.20;;;;;;5091629;28;19939;-67
2022/03/12 13:06:13;;;;;;;;;;;16.50;47.20;;;;;;5062977;28;19932;-69
2022/03/12 13:08:43;;;;;;;;;;;16.50;47.20;;;;;;5082042;28;19925;-69
2022/03/12 13:11:28;;;;;;;;;;;16.50;47.20;;;;;;5057068;28;19938;-68
2022/03/12 13:13:55;;;;;;;;;;;16.50;47.20;;;;;;5092106;28;19924;-69
2022/03/12 13:16:22;;;;;;;;;;;16.50;47.20;;;;;;5092321;28;19935;-67
2022/03/12 13:18:50;;;;;;;;;;;16.50;47.20;;;;;;5092332;28;19924;-69
2022/03/12 13:21:26;;;;;;;;;;;16.50;47.20;;;;;;5092402;28;20323;-68
2022/03/12 13:23:53;;;;;;;;;;;16.50;47.10;;;;;;5087180;28;20294;-68
2022/03/12 13:26:19;;;;;;;;;;;16.50;47.10;;;;;;5091415;28;19924;-68
2022/03/12 13:28:48;;;;;;;;;;;16.50;47.10;;;;;;5073351;28;20010;-68
2022/03/12 13:31:23;;;;;;;;;;;16.50;47.10;;;;;;5068141;28;19924;-67
2022/03/12 13:33:57;;;;;;;;;;;16.50;47.10;;;;;;5070330;28;20015;-69
2022/03/12 13:36:24;;;;;;;;;;;16.50;47.20;;;;;;5070022;28;19924;-68
2022/03/12 13:38:51;;;;;;;;;;;16.40;47.30;;;;;;5072007;28;20458;-70
2022/03/12 13:41:18;;;;;;;;;;;16.40;47.30;;;;;;5070579;28;19964;-70
2022/03/12 13:43:45;;;;;;;;;;;16.40;47.40;;;;;;5080422;28;20314;-70
2022/03/12 13:46:12;;;;;;;;;;;16.40;47.50;;;;;;5073004;28;19928;-70
2022/03/12 13:48:39;;;;;;;;;;;16.40;47.50;;;;;;5093201;28;19924;-70
2022/03/12 13:51:07;;;;;;;;;;;16.40;47.50;;;;;;5094745;28;19924;-70
2022/03/12 13:53:33;;;;;;;;;;;16.40;47.50;;;;;;5076516;28;20291;-70
2022/03/12 13:56:04;;;;;;;;;;;16.40;47.50;;;;;;5094892;28;20568;-70
2022/03/12 13:58:31;;;;;;;;;;;16.30;47.50;;;;;;5077476;28;19982;-70
2022/03/12 14:01:00;;;;;;;;;;;16.30;47.50;;;;;;5077291;28;19924;-70
2022/03/12 14:03:30;;;;;;;;;;;16.30;47.60;;;;;;5076911;28;19924;-70
2022/03/12 14:05:57;;;;;;;;;;;16.30;47.60;;;;;;5077485;28;19931;-70
2022/03/12 14:08:29;;;;;;;;;;;16.20;47.60;;;;;;5077472;28;19928;-70
2022/03/12 14:10:55;;;;;;;;;;;16.20;47.60;;;;;;5095718;28;19955;-70
2022/03/12 14:13:22;;;;;;;;;;;16.20;47.70;;;;;;5095182;28;19939;-70
2022/03/12 14:15:49;;;;;;;;;;;16.20;47.70;;;;;;5077419;28;19923;-71
2022/03/12 14:18:20;;;;;;;;;;;16.20;47.70;;;;;;5077569;28;19930;-70
2022/03/12 14:20:48;;;;;;;;;;;16.20;47.70;;;;;;5077441;28;19925;-70